Time;durP1;ratioP1;P1;durP2;ratioP2;P2;SDS_P1;SDS_P2;PMS_P1;PMS_P2;Temp;Humidity;BMP_temperature;BMP_pressure;BME280_temperature;BME280_humidity;BME280_pressure;Samples;Min_cycle;Max_cycle;Signal;HPM_P1;HPM_P2
2022/08/20 00:00:56;;;;;;;17.1;15.5;;;;;;;17.46;98.86328;95228.16;;;;
2022/08/20 00:01:57;;;;;;;17.1;15.5;;;;;;;17.46;98.86328;95228.16;;;;
2022/08/20 00:02:57;;;;;;;17.1;15.5;;;;;;;17.46;98.86328;95228.16;;;;
2022/08/20 00:04:00;;;;;;;17.1;15.5;;;;;;;17.46;98.86328;95228.16;;;;
2022/08/20 00:05:01;;;;;;;17.1;15.5;;;;;;;17.46;98.86328;95228.16;;;;
2022/08/20 00:06:02;;;;;;;17.4;15.7;;;;;;;17.48;98.9873;95224.7;;;;
2022/08/20 00:07:05;;;;;;;17.4;15.7;;;;;;;17.48;98.9873;95224.7;;;;
2022/08/20 00:08:06;;;;;;;17.4;15.7;;;;;;;17.48;98.9873;95224.7;;;;
2022/08/20 00:09:09;;;;;;;17.4;15.7;;;;;;;17.48;98.9873;95224.7;;;;
2022/08/20 00:10:09;;;;;;;17.4;15.7;;;;;;;17.48;98.9873;95224.7;;;;
2022/08/20 00:11:11;;;;;;;17.4;15.7;;;;;;;17.48;98.9873;95224.7;;;;
2022/08/20 00:12:16;;;;;;;17.4;15.7;;;;;;;17.48;98.9873;95224.7;;;;
2022/08/20 00:13:16;;;;;;;17.4;15.7;;;;;;;17.48;98.9873;95224.7;;;;
2022/08/20 00:14:22;;;;;;;17.4;15.7;;;;;;;17.48;98.9873;95224.7;;;;
2022/08/20 00:15:22;;;;;;;17.4;15.7;;;;;;;17.48;98.9873;95224.7;;;;
2022/08/20 00:16:31;;;;;;;17.45;15.85;;;;;;;17.42;98.82031;95231.16;;;;
2022/08/20 00:17:35;;;;;;;17.45;15.85;;;;;;;17.42;98.82031;95231.16;;;;
2022/08/20 00:18:36;;;;;;;17.45;15.85;;;;;;;17.42;98.82031;95231.16;;;;
2022/08/20 00:19:37;;;;;;;17.45;15.85;;;;;;;17.42;98.82031;95231.16;;;;
2022/08/20 00:20:38;;;;;;;17.45;15.85;;;;;;;17.42;98.82031;95231.16;;;;
2022/08/20 00:21:41;;;;;;;17.45;15.85;;;;;;;17.42;98.82031;95231.16;;;;
2022/08/20 00:22:42;;;;;;;17.45;15.85;;;;;;;17.42;98.82031;95231.16;;;;
2022/08/20 00:23:43;;;;;;;17.45;15.85;;;;;;;17.42;98.82031;95231.16;;;;
2022/08/20 00:24:47;;;;;;;17.45;15.85;;;;;;;17.42;98.82031;95231.16;;;;
2022/08/20 00:25:47;;;;;;;17.45;15.85;;;;;;;17.42;98.82031;95231.16;;;;
2022/08/20 00:26:48;;;;;;;17.5;15.75;;;;;;;17.41;99.00293;95234.91;;;;
2022/08/20 00:27:49;;;;;;;17.5;15.75;;;;;;;17.41;99.00293;95234.91;;;;
2022/08/20 00:28:49;;;;;;;17.5;15.75;;;;;;;17.41;99.00293;95234.91;;;;
2022/08/20 00:29:51;;;;;;;17.5;15.75;;;;;;;17.41;99.00293;95234.91;;;;
2022/08/20 00:30:51;;;;;;;17.5;15.75;;;;;;;17.41;99.00293;95234.91;;;;
2022/08/20 00:31:52;;;;;;;17.5;15.75;;;;;;;17.41;99.00293;95234.91;;;;
2022/08/20 00:32:52;;;;;;;17.5;15.75;;;;;;;17.41;99.00293;95234.91;;;;
2022/08/20 00:33:56;;;;;;;17.5;15.75;;;;;;;17.41;99.00293;95234.91;;;;
2022/08/20 00:34:57;;;;;;;17.5;15.75;;;;;;;17.41;99.00293;95234.91;;;;
2022/08/20 00:35:58;;;;;;;17.5;15.75;;;;;;;17.41;99.00293;95234.91;;;;
2022/08/20 00:36:58;;;;;;;17.5;15.75;;;;;;;17.41;99.00293;95234.91;;;;
2022/08/20 00:37:59;;;;;;;17.3;15.75;;;;;;;17.35;98.88184;95238.98;;;;
2022/08/20 00:39:00;;;;;;;17.3;15.75;;;;;;;17.35;98.88184;95238.98;;;;
2022/08/20 00:40:00;;;;;;;17.3;15.75;;;;;;;17.35;98.88184;95238.98;;;;
2022/08/20 00:41:01;;;;;;;17.3;15.75;;;;;;;17.35;98.88184;95238.98;;;;
2022/08/20 00:42:04;;;;;;;17.3;15.75;;;;;;;17.35;98.88184;95238.98;;;;
2022/08/20 00:43:04;;;;;;;17.3;15.75;;;;;;;17.35;98.88184;95238.98;;;;
2022/08/20 00:44:23;;;;;;;17.3;15.75;;;;;;;17.35;98.88184;95238.98;;;;
2022/08/20 00:45:23;;;;;;;17.3;15.75;;;;;;;17.35;98.88184;95238.98;;;;
2022/08/20 00:46:28;;;;;;;17.3;15.75;;;;;;;17.35;98.88184;95238.98;;;;
2022/08/20 00:47:30;;;;;;;17.3;15.75;;;;;;;17.35;98.88184;95238.98;;;;
2022/08/20 00:48:31;;;;;;;19.95;17.9;;;;;;;17.35;99.06641;95230.97;;;;
2022/08/20 00:49:33;;;;;;;19.95;17.9;;;;;;;17.35;99.06641;95230.97;;;;
2022/08/20 00:50:34;;;;;;;19.95;17.9;;;;;;;17.35;99.06641;95230.97;;;;
2022/08/20 00:51:37;;;;;;;19.95;17.9;;;;;;;17.35;99.06641;95230.97;;;;
2022/08/20 00:52:41;;;;;;;19.95;17.9;;;;;;;17.35;99.06641;95230.97;;;;
2022/08/20 00:53:46;;;;;;;19.95;17.9;;;;;;;17.35;99.06641;95230.97;;;;
2022/08/20 00:54:47;;;;;;;19.95;17.9;;;;;;;17.35;99.06641;95230.97;;;;
2022/08/20 00:55:53;;;;;;;19.95;17.9;;;;;;;17.35;99.06641;95230.97;;;;
2022/08/20 00:56:55;;;;;;;19.95;17.9;;;;;;;17.35;99.06641;95230.97;;;;
2022/08/20 00:57:59;;;;;;;19.95;17.9;;;;;;;17.35;99.06641;95230.97;;;;
2022/08/20 00:59:04;;;;;;;20.6;18.55;;;;;;;17.31;98.96094;95227.21;;;;
2022/08/20 01:00:08;;;;;;;20.6;18.55;;;;;;;17.31;98.96094;95227.21;;;;
2022/08/20 01:01:14;;;;;;;20.6;18.55;;;;;;;17.31;98.96094;95227.21;;;;
2022/08/20 01:02:15;;;;;;;20.6;18.55;;;;;;;17.31;98.96094;95227.21;;;;
2022/08/20 01:03:16;;;;;;;20.6;18.55;;;;;;;17.31;98.96094;95227.21;;;;
2022/08/20 01:04:18;;;;;;;20.6;18.55;;;;;;;17.31;98.96094;95227.21;;;;
2022/08/20 01:05:22;;;;;;;20.6;18.55;;;;;;;17.31;98.96094;95227.21;;;;
2022/08/20 01:06:23;;;;;;;20.6;18.55;;;;;;;17.31;98.96094;95227.21;;;;
2022/08/20 01:07:31;;;;;;;20.6;18.55;;;;;;;17.31;98.96094;95227.21;;;;
2022/08/20 01:08:31;;;;;;;20.6;18.55;;;;;;;17.31;98.96094;95227.21;;;;
2022/08/20 01:09:32;;;;;;;21.95;19.75;;;;;;;17.35;99.1748;95233.64;;;;
2022/08/20 01:10:33;;;;;;;21.95;19.75;;;;;;;17.35;99.1748;95233.64;;;;
2022/08/20 01:11:37;;;;;;;21.95;19.75;;;;;;;17.35;99.1748;95233.64;;;;
2022/08/20 01:12:38;;;;;;;21.95;19.75;;;;;;;17.35;99.1748;95233.64;;;;
2022/08/20 01:13:42;;;;;;;21.95;19.75;;;;;;;17.35;99.1748;95233.64;;;;
2022/08/20 01:14:45;;;;;;;21.95;19.75;;;;;;;17.35;99.1748;95233.64;;;;
2022/08/20 01:15:46;;;;;;;21.95;19.75;;;;;;;17.35;99.1748;95233.64;;;;
2022/08/20 01:16:49;;;;;;;21.95;19.75;;;;;;;17.35;99.1748;95233.64;;;;
2022/08/20 01:17:56;;;;;;;21.95;19.75;;;;;;;17.35;99.1748;95233.64;;;;
2022/08/20 01:18:59;;;;;;;21.95;19.75;;;;;;;17.35;99.1748;95233.64;;;;
2022/08/20 01:20:01;;;;;;;22;19.8;;;;;;;17.32;99.08203;95242.99;;;;
2022/08/20 01:21:06;;;;;;;22;19.8;;;;;;;17.32;99.08203;95242.99;;;;
2022/08/20 01:23:25;;;;;;;22;19.8;;;;;;;17.32;99.08203;95242.99;;;;
2022/08/20 01:24:33;;;;;;;22;19.8;;;;;;;17.32;99.08203;95242.99;;;;
2022/08/20 01:25:38;;;;;;;22;19.8;;;;;;;17.32;99.08203;95242.99;;;;
2022/08/20 01:26:43;;;;;;;22;19.8;;;;;;;17.32;99.08203;95242.99;;;;
2022/08/20 01:27:45;;;;;;;22;19.8;;;;;;;17.32;99.08203;95242.99;;;;
2022/08/20 01:28:48;;;;;;;22;19.8;;;;;;;17.32;99.08203;95242.99;;;;
2022/08/20 01:29:52;;;;;;;22;19.8;;;;;;;17.32;99.08203;95242.99;;;;
2022/08/20 01:30:53;;;;;;;23.45;21.1;;;;;;;17.37;99.28809;95251.57;;;;
2022/08/20 01:32:00;;;;;;;23.45;21.1;;;;;;;17.37;99.28809;95251.57;;;;
2022/08/20 01:33:01;;;;;;;23.45;21.1;;;;;;;17.37;99.28809;95251.57;;;;
2022/08/20 01:34:02;;;;;;;23.45;21.1;;;;;;;17.37;99.28809;95251.57;;;;
2022/08/20 01:35:05;;;;;;;23.45;21.1;;;;;;;17.37;99.28809;95251.57;;;;
2022/08/20 01:36:08;;;;;;;23.45;21.1;;;;;;;17.37;99.28809;95251.57;;;;
2022/08/20 01:37:09;;;;;;;23.45;21.1;;;;;;;17.37;99.28809;95251.57;;;;
2022/08/20 01:38:09;;;;;;;23.45;21.1;;;;;;;17.37;99.28809;95251.57;;;;
2022/08/20 01:39:11;;;;;;;23.45;21.1;;;;;;;17.37;99.28809;95251.57;;;;
2022/08/20 01:40:15;;;;;;;23.45;21.1;;;;;;;17.37;99.28809;95251.57;;;;
2022/08/20 01:41:30;;;;;;;23.45;21.1;;;;;;;17.37;99.28809;95251.57;;;;
2022/08/20 01:42:48;;;;;;;23.45;21.1;;;;;;;17.37;99.28809;95251.57;;;;
2022/08/20 01:43:48;;;;;;;23.45;21.1;;;;;;;17.37;99.28809;95251.57;;;;
2022/08/20 01:44:51;;;;;;;23.45;21.1;;;;;;;17.37;99.28809;95251.57;;;;
2022/08/20 01:45:52;;;;;;;23.45;21.1;;;;;;;17.37;99.28809;95251.57;;;;
2022/08/20 01:46:54;;;;;;;23.45;21.1;;;;;;;17.37;99.28809;95251.57;;;;
2022/08/20 01:47:55;;;;;;;23.45;21.1;;;;;;;17.37;99.28809;95251.57;;;;
2022/08/20 01:48:56;;;;;;;23.45;21.1;;;;;;;17.37;99.28809;95251.57;;;;
2022/08/20 01:49:58;;;;;;;23.45;21.1;;;;;;;17.37;99.28809;95251.57;;;;
2022/08/20 01:51:09;;;;;;;23.45;21.1;;;;;;;17.37;99.28809;95251.57;;;;
2022/08/20 01:52:12;;;;;;;26.8;24.05;;;;;;;17.37;99.3418;95253.83;;;;
2022/08/20 01:53:23;;;;;;;26.8;24.05;;;;;;;17.37;99.3418;95253.83;;;;
2022/08/20 01:54:27;;;;;;;26.8;24.05;;;;;;;17.37;99.3418;95253.83;;;;
2022/08/20 01:55:28;;;;;;;26.8;24.05;;;;;;;17.37;99.3418;95253.83;;;;
2022/08/20 01:56:28;;;;;;;26.8;24.05;;;;;;;17.37;99.3418;95253.83;;;;
2022/08/20 01:57:33;;;;;;;26.8;24.05;;;;;;;17.37;99.3418;95253.83;;;;
2022/08/20 01:58:36;;;;;;;26.8;24.05;;;;;;;17.37;99.3418;95253.83;;;;
2022/08/20 01:59:39;;;;;;;26.8;24.05;;;;;;;17.37;99.3418;95253.83;;;;
2022/08/20 02:00:40;;;;;;;26.8;24.05;;;;;;;17.37;99.3418;95253.83;;;;
2022/08/20 02:01:41;;;;;;;26.8;24.05;;;;;;;17.37;99.3418;95253.83;;;;
2022/08/20 02:02:42;;;;;;;26.9;23.95;;;;;;;17.33;99.23828;95254.35;;;;
2022/08/20 02:03:43;;;;;;;26.9;23.95;;;;;;;17.33;99.23828;95254.35;;;;
2022/08/20 02:04:43;;;;;;;26.9;23.95;;;;;;;17.33;99.23828;95254.35;;;;
2022/08/20 02:05:44;;;;;;;26.9;23.95;;;;;;;17.33;99.23828;95254.35;;;;
2022/08/20 02:06:44;;;;;;;26.9;23.95;;;;;;;17.33;99.23828;95254.35;;;;
2022/08/20 02:07:49;;;;;;;26.9;23.95;;;;;;;17.33;99.23828;95254.35;;;;
2022/08/20 02:08:50;;;;;;;26.9;23.95;;;;;;;17.33;99.23828;95254.35;;;;
2022/08/20 02:09:54;;;;;;;26.9;23.95;;;;;;;17.33;99.23828;95254.35;;;;
2022/08/20 02:10:54;;;;;;;26.9;23.95;;;;;;;17.33;99.23828;95254.35;;;;
2022/08/20 02:11:56;;;;;;;26.9;23.95;;;;;;;17.33;99.23828;95254.35;;;;
2022/08/20 02:12:57;;;;;;;26.9;23.95;;;;;;;17.33;99.23828;95254.35;;;;
2022/08/20 02:13:58;;;;;;;30.1;26.55;;;;;;;17.34;99.3916;95266.64;;;;
2022/08/20 02:14:59;;;;;;;30.1;26.55;;;;;;;17.34;99.3916;95266.64;;;;
2022/08/20 02:16:00;;;;;;;30.1;26.55;;;;;;;17.34;99.3916;95266.64;;;;
2022/08/20 02:17:00;;;;;;;30.1;26.55;;;;;;;17.34;99.3916;95266.64;;;;
2022/08/20 02:18:01;;;;;;;30.1;26.55;;;;;;;17.34;99.3916;95266.64;;;;
2022/08/20 02:19:08;;;;;;;30.1;26.55;;;;;;;17.34;99.3916;95266.64;;;;
2022/08/20 02:20:11;;;;;;;30.1;26.55;;;;;;;17.34;99.3916;95266.64;;;;
2022/08/20 02:21:16;;;;;;;30.1;26.55;;;;;;;17.34;99.3916;95266.64;;;;
2022/08/20 02:22:17;;;;;;;30.1;26.55;;;;;;;17.34;99.3916;95266.64;;;;
2022/08/20 02:23:23;;;;;;;30.1;26.55;;;;;;;17.34;99.3916;95266.64;;;;
2022/08/20 02:24:23;;;;;;;32.2;27.85;;;;;;;17.29;99.37891;95272.08;;;;
2022/08/20 02:25:24;;;;;;;32.2;27.85;;;;;;;17.29;99.37891;95272.08;;;;
2022/08/20 02:26:28;;;;;;;32.2;27.85;;;;;;;17.29;99.37891;95272.08;;;;
2022/08/20 02:27:28;;;;;;;32.2;27.85;;;;;;;17.29;99.37891;95272.08;;;;
2022/08/20 02:28:29;;;;;;;32.2;27.85;;;;;;;17.29;99.37891;95272.08;;;;
2022/08/20 02:29:30;;;;;;;32.2;27.85;;;;;;;17.29;99.37891;95272.08;;;;
2022/08/20 02:30:32;;;;;;;32.2;27.85;;;;;;;17.29;99.37891;95272.08;;;;
2022/08/20 02:31:36;;;;;;;32.2;27.85;;;;;;;17.29;99.37891;95272.08;;;;
2022/08/20 02:32:39;;;;;;;32.2;27.85;;;;;;;17.29;99.37891;95272.08;;;;
2022/08/20 02:33:41;;;;;;;32.2;27.85;;;;;;;17.29;99.37891;95272.08;;;;
2022/08/20 02:34:42;;;;;;;32.2;27.85;;;;;;;17.29;99.37891;95272.08;;;;
2022/08/20 02:35:42;;;;;;;32.55;27.8;;;;;;;17.3;99.60938;95269.67;;;;
2022/08/20 02:36:48;;;;;;;32.55;27.8;;;;;;;17.3;99.60938;95269.67;;;;
2022/08/20 02:37:48;;;;;;;32.55;27.8;;;;;;;17.3;99.60938;95269.67;;;;
2022/08/20 02:38:49;;;;;;;32.55;27.8;;;;;;;17.3;99.60938;95269.67;;;;
2022/08/20 02:39:50;;;;;;;32.55;27.8;;;;;;;17.3;99.60938;95269.67;;;;
2022/08/20 02:40:50;;;;;;;32.55;27.8;;;;;;;17.3;99.60938;95269.67;;;;
2022/08/20 02:41:51;;;;;;;32.55;27.8;;;;;;;17.3;99.60938;95269.67;;;;
2022/08/20 02:42:52;;;;;;;32.55;27.8;;;;;;;17.3;99.60938;95269.67;;;;
2022/08/20 02:43:53;;;;;;;32.55;27.8;;;;;;;17.3;99.60938;95269.67;;;;
2022/08/20 02:44:57;;;;;;;32.55;27.8;;;;;;;17.3;99.60938;95269.67;;;;
2022/08/20 02:45:58;;;;;;;32.1;28.5;;;;;;;17.25;99.55566;95277.11;;;;
2022/08/20 02:46:59;;;;;;;32.1;28.5;;;;;;;17.25;99.55566;95277.11;;;;
2022/08/20 02:48:00;;;;;;;32.1;28.5;;;;;;;17.25;99.55566;95277.11;;;;
2022/08/20 02:49:00;;;;;;;32.1;28.5;;;;;;;17.25;99.55566;95277.11;;;;
2022/08/20 02:50:02;;;;;;;32.1;28.5;;;;;;;17.25;99.55566;95277.11;;;;
2022/08/20 02:51:04;;;;;;;32.1;28.5;;;;;;;17.25;99.55566;95277.11;;;;
2022/08/20 02:52:06;;;;;;;32.1;28.5;;;;;;;17.25;99.55566;95277.11;;;;
2022/08/20 02:53:07;;;;;;;32.1;28.5;;;;;;;17.25;99.55566;95277.11;;;;
2022/08/20 02:54:08;;;;;;;32.1;28.5;;;;;;;17.25;99.55566;95277.11;;;;
2022/08/20 02:55:08;;;;;;;32.1;28.5;;;;;;;17.25;99.55566;95277.11;;;;
2022/08/20 02:56:11;;;;;;;32.10001;28.65;;;;;;;17.27;99.72266;95271.51;;;;
2022/08/20 02:57:12;;;;;;;32.10001;28.65;;;;;;;17.27;99.72266;95271.51;;;;
2022/08/20 02:58:13;;;;;;;32.10001;28.65;;;;;;;17.27;99.72266;95271.51;;;;
2022/08/20 02:59:14;;;;;;;32.10001;28.65;;;;;;;17.27;99.72266;95271.51;;;;
2022/08/20 03:00:15;;;;;;;32.10001;28.65;;;;;;;17.27;99.72266;95271.51;;;;
2022/08/20 03:01:20;;;;;;;32.10001;28.65;;;;;;;17.27;99.72266;95271.51;;;;
2022/08/20 03:02:21;;;;;;;32.10001;28.65;;;;;;;17.27;99.72266;95271.51;;;;
2022/08/20 03:03:22;;;;;;;32.10001;28.65;;;;;;;17.27;99.72266;95271.51;;;;
2022/08/20 03:04:24;;;;;;;32.10001;28.65;;;;;;;17.27;99.72266;95271.51;;;;
2022/08/20 03:05:24;;;;;;;32.10001;28.65;;;;;;;17.27;99.72266;95271.51;;;;
2022/08/20 03:06:25;;;;;;;32.10001;28.65;;;;;;;17.27;99.72266;95271.51;;;;
2022/08/20 03:07:27;;;;;;;32.15;28.75001;;;;;;;17.21;99.63379;95273.77;;;;
2022/08/20 03:08:28;;;;;;;32.15;28.75001;;;;;;;17.21;99.63379;95273.77;;;;
2022/08/20 03:09:29;;;;;;;32.15;28.75001;;;;;;;17.21;99.63379;95273.77;;;;
2022/08/20 03:10:30;;;;;;;32.15;28.75001;;;;;;;17.21;99.63379;95273.77;;;;
2022/08/20 03:11:34;;;;;;;32.15;28.75001;;;;;;;17.21;99.63379;95273.77;;;;
2022/08/20 03:12:35;;;;;;;32.15;28.75001;;;;;;;17.21;99.63379;95273.77;;;;
2022/08/20 03:13:36;;;;;;;32.15;28.75001;;;;;;;17.21;99.63379;95273.77;;;;
2022/08/20 03:14:36;;;;;;;32.15;28.75001;;;;;;;17.21;99.63379;95273.77;;;;
2022/08/20 03:15:37;;;;;;;32.15;28.75001;;;;;;;17.21;99.63379;95273.77;;;;
2022/08/20 03:16:41;;;;;;;32.15;28.75001;;;;;;;17.21;99.63379;95273.77;;;;
2022/08/20 03:17:42;;;;;;;36.85001;29.4;;;;;;;17.22;99.80957;95274.95;;;;
2022/08/20 03:18:43;;;;;;;36.85001;29.4;;;;;;;17.22;99.80957;95274.95;;;;
2022/08/20 03:19:45;;;;;;;36.85001;29.4;;;;;;;17.22;99.80957;95274.95;;;;
2022/08/20 03:20:46;;;;;;;36.85001;29.4;;;;;;;17.22;99.80957;95274.95;;;;
2022/08/20 03:21:47;;;;;;;36.85001;29.4;;;;;;;17.22;99.80957;95274.95;;;;
2022/08/20 03:22:48;;;;;;;36.85001;29.4;;;;;;;17.22;99.80957;95274.95;;;;
2022/08/20 03:23:48;;;;;;;36.85001;29.4;;;;;;;17.22;99.80957;95274.95;;;;
2022/08/20 03:24:49;;;;;;;36.85001;29.4;;;;;;;17.22;99.80957;95274.95;;;;
2022/08/20 03:25:49;;;;;;;36.85001;29.4;;;;;;;17.22;99.80957;95274.95;;;;
2022/08/20 03:26:50;;;;;;;36.85001;29.4;;;;;;;17.22;99.80957;95274.95;;;;
2022/08/20 03:27:50;;;;;;;36.85001;29.4;;;;;;;17.22;99.80957;95274.95;;;;
2022/08/20 03:28:51;;;;;;;33.25001;28.85;;;;;;;17.18;99.78809;95278.8;;;;
2022/08/20 03:29:51;;;;;;;33.25001;28.85;;;;;;;17.18;99.78809;95278.8;;;;
2022/08/20 03:30:52;;;;;;;33.25001;28.85;;;;;;;17.18;99.78809;95278.8;;;;
2022/08/20 03:31:53;;;;;;;33.25001;28.85;;;;;;;17.18;99.78809;95278.8;;;;
2022/08/20 03:32:53;;;;;;;33.25001;28.85;;;;;;;17.18;99.78809;95278.8;;;;
2022/08/20 03:33:55;;;;;;;33.25001;28.85;;;;;;;17.18;99.78809;95278.8;;;;
2022/08/20 03:34:55;;;;;;;33.25001;28.85;;;;;;;17.18;99.78809;95278.8;;;;
2022/08/20 03:35:56;;;;;;;33.25001;28.85;;;;;;;17.18;99.78809;95278.8;;;;
2022/08/20 03:36:57;;;;;;;33.25001;28.85;;;;;;;17.18;99.78809;95278.8;;;;
2022/08/20 03:37:57;;;;;;;33.25001;28.85;;;;;;;17.18;99.78809;95278.8;;;;
2022/08/20 03:38:59;;;;;;;36.50001;31.3;;;;;;;17.22;100;95290.58;;;;
2022/08/20 03:40:03;;;;;;;36.50001;31.3;;;;;;;17.22;100;95290.58;;;;
2022/08/20 03:41:06;;;;;;;36.50001;31.3;;;;;;;17.22;100;95290.58;;;;
2022/08/20 03:42:07;;;;;;;36.50001;31.3;;;;;;;17.22;100;95290.58;;;;
2022/08/20 03:43:08;;;;;;;36.50001;31.3;;;;;;;17.22;100;95290.58;;;;
2022/08/20 03:44:09;;;;;;;36.50001;31.3;;;;;;;17.22;100;95290.58;;;;
2022/08/20 03:45:10;;;;;;;36.50001;31.3;;;;;;;17.22;100;95290.58;;;;
2022/08/20 03:46:12;;;;;;;36.50001;31.3;;;;;;;17.22;100;95290.58;;;;
2022/08/20 03:47:12;;;;;;;36.50001;31.3;;;;;;;17.22;100;95290.58;;;;
2022/08/20 03:48:13;;;;;;;36.50001;31.3;;;;;;;17.22;100;95290.58;;;;
2022/08/20 03:49:16;;;;;;;36.50001;31.3;;;;;;;17.22;100;95290.58;;;;
2022/08/20 03:50:16;;;;;;;39.40001;31.45;;;;;;;17.19;99.95508;95301.25;;;;
2022/08/20 03:51:19;;;;;;;39.40001;31.45;;;;;;;17.19;99.95508;95301.25;;;;
2022/08/20 03:52:20;;;;;;;39.40001;31.45;;;;;;;17.19;99.95508;95301.25;;;;
2022/08/20 03:53:21;;;;;;;39.40001;31.45;;;;;;;17.19;99.95508;95301.25;;;;
2022/08/20 03:54:22;;;;;;;39.40001;31.45;;;;;;;17.19;99.95508;95301.25;;;;
2022/08/20 03:55:22;;;;;;;39.40001;31.45;;;;;;;17.19;99.95508;95301.25;;;;
2022/08/20 03:56:24;;;;;;;39.40001;31.45;;;;;;;17.19;99.95508;95301.25;;;;
2022/08/20 03:57:26;;;;;;;39.40001;31.45;;;;;;;17.19;99.95508;95301.25;;;;
2022/08/20 03:58:27;;;;;;;39.40001;31.45;;;;;;;17.19;99.95508;95301.25;;;;
2022/08/20 03:59:31;;;;;;;39.40001;31.45;;;;;;;17.19;99.95508;95301.25;;;;
2022/08/20 04:00:32;;;;;;;35.8;30.75;;;;;;;17.23;100;95303.82;;;;
2022/08/20 04:01:36;;;;;;;35.8;30.75;;;;;;;17.23;100;95303.82;;;;
2022/08/20 04:02:36;;;;;;;35.8;30.75;;;;;;;17.23;100;95303.82;;;;
2022/08/20 04:03:37;;;;;;;35.8;30.75;;;;;;;17.23;100;95303.82;;;;
2022/08/20 04:04:38;;;;;;;35.8;30.75;;;;;;;17.23;100;95303.82;;;;
2022/08/20 04:05:41;;;;;;;35.8;30.75;;;;;;;17.23;100;95303.82;;;;
2022/08/20 04:06:42;;;;;;;35.8;30.75;;;;;;;17.23;100;95303.82;;;;
2022/08/20 04:07:43;;;;;;;35.8;30.75;;;;;;;17.23;100;95303.82;;;;
2022/08/20 04:08:44;;;;;;;35.8;30.75;;;;;;;17.23;100;95303.82;;;;
2022/08/20 04:09:45;;;;;;;35.8;30.75;;;;;;;17.23;100;95303.82;;;;
2022/08/20 04:10:45;;;;;;;35.8;30.75;;;;;;;17.23;100;95303.82;;;;
2022/08/20 04:11:48;;;;;;;33;28.95;;;;;;;17.17;100;95304.29;;;;
2022/08/20 04:12:49;;;;;;;33;28.95;;;;;;;17.17;100;95304.29;;;;
2022/08/20 04:13:49;;;;;;;33;28.95;;;;;;;17.17;100;95304.29;;;;
2022/08/20 04:14:50;;;;;;;33;28.95;;;;;;;17.17;100;95304.29;;;;
2022/08/20 04:15:52;;;;;;;33;28.95;;;;;;;17.17;100;95304.29;;;;
2022/08/20 04:16:53;;;;;;;33;28.95;;;;;;;17.17;100;95304.29;;;;
2022/08/20 04:17:54;;;;;;;33;28.95;;;;;;;17.17;100;95304.29;;;;
2022/08/20 04:18:54;;;;;;;33;28.95;;;;;;;17.17;100;95304.29;;;;
2022/08/20 04:19:55;;;;;;;33;28.95;;;;;;;17.17;100;95304.29;;;;
2022/08/20 04:20:55;;;;;;;33;28.95;;;;;;;17.17;100;95304.29;;;;
2022/08/20 04:21:56;;;;;;;34.55;30;;;;;;;17.18;100;95307.78;;;;
2022/08/20 04:22:56;;;;;;;34.55;30;;;;;;;17.18;100;95307.78;;;;
2022/08/20 04:23:57;;;;;;;34.55;30;;;;;;;17.18;100;95307.78;;;;
2022/08/20 04:24:57;;;;;;;34.55;30;;;;;;;17.18;100;95307.78;;;;
2022/08/20 04:25:58;;;;;;;34.55;30;;;;;;;17.18;100;95307.78;;;;
2022/08/20 04:26:58;;;;;;;34.55;30;;;;;;;17.18;100;95307.78;;;;
2022/08/20 04:28:00;;;;;;;34.55;30;;;;;;;17.18;100;95307.78;;;;
2022/08/20 04:29:04;;;;;;;34.55;30;;;;;;;17.18;100;95307.78;;;;
2022/08/20 04:30:05;;;;;;;34.55;30;;;;;;;17.18;100;95307.78;;;;
2022/08/20 04:31:12;;;;;;;34.55;30;;;;;;;17.18;100;95307.78;;;;
2022/08/20 04:32:12;;;;;;;33.2;29.65;;;;;;;17.13;100;95318.81;;;;
2022/08/20 04:33:15;;;;;;;33.2;29.65;;;;;;;17.13;100;95318.81;;;;
2022/08/20 04:34:18;;;;;;;33.2;29.65;;;;;;;17.13;100;95318.81;;;;
2022/08/20 04:35:19;;;;;;;33.2;29.65;;;;;;;17.13;100;95318.81;;;;
2022/08/20 04:36:19;;;;;;;33.2;29.65;;;;;;;17.13;100;95318.81;;;;
2022/08/20 04:37:20;;;;;;;33.2;29.65;;;;;;;17.13;100;95318.81;;;;
2022/08/20 04:38:22;;;;;;;33.2;29.65;;;;;;;17.13;100;95318.81;;;;
2022/08/20 04:39:22;;;;;;;33.2;29.65;;;;;;;17.13;100;95318.81;;;;
2022/08/20 04:41:28;;;;;;;33.2;29.65;;;;;;;17.13;100;95318.81;;;;
2022/08/20 04:42:28;;;;;;;33.2;29.65;;;;;;;17.13;100;95318.81;;;;
2022/08/20 04:43:29;;;;;;;32.5;28.9;;;;;;;17.13;100;95325.09;;;;
2022/08/20 04:44:32;;;;;;;32.5;28.9;;;;;;;17.13;100;95325.09;;;;
2022/08/20 04:45:32;;;;;;;32.5;28.9;;;;;;;17.13;100;95325.09;;;;
2022/08/20 04:46:33;;;;;;;32.5;28.9;;;;;;;17.13;100;95325.09;;;;
2022/08/20 04:47:34;;;;;;;32.5;28.9;;;;;;;17.13;100;95325.09;;;;
2022/08/20 04:48:38;;;;;;;32.5;28.9;;;;;;;17.13;100;95325.09;;;;
2022/08/20 04:49:38;;;;;;;32.5;28.9;;;;;;;17.13;100;95325.09;;;;
2022/08/20 04:50:39;;;;;;;32.5;28.9;;;;;;;17.13;100;95325.09;;;;
2022/08/20 04:51:42;;;;;;;32.5;28.9;;;;;;;17.13;100;95325.09;;;;
2022/08/20 04:52:43;;;;;;;32.5;28.9;;;;;;;17.13;100;95325.09;;;;
2022/08/20 04:53:44;;;;;;;35.45;29.95;;;;;;;17.09;100;95327.86;;;;
2022/08/20 04:54:46;;;;;;;35.45;29.95;;;;;;;17.09;100;95327.86;;;;
2022/08/20 04:55:47;;;;;;;35.45;29.95;;;;;;;17.09;100;95327.86;;;;
2022/08/20 04:56:48;;;;;;;35.45;29.95;;;;;;;17.09;100;95327.86;;;;
2022/08/20 04:57:51;;;;;;;35.45;29.95;;;;;;;17.09;100;95327.86;;;;
2022/08/20 04:58:51;;;;;;;35.45;29.95;;;;;;;17.09;100;95327.86;;;;
2022/08/20 04:59:54;;;;;;;35.45;29.95;;;;;;;17.09;100;95327.86;;;;
2022/08/20 05:00:54;;;;;;;35.45;29.95;;;;;;;17.09;100;95327.86;;;;
2022/08/20 05:01:57;;;;;;;35.45;29.95;;;;;;;17.09;100;95327.86;;;;
2022/08/20 05:02:58;;;;;;;35.45;29.95;;;;;;;17.09;100;95327.86;;;;
2022/08/20 05:03:59;;;;;;;35.45;29.95;;;;;;;17.09;100;95327.86;;;;
2022/08/20 05:04:59;;;;;;;32.85;29.1;;;;;;;17.17;100;95338.09;;;;
2022/08/20 05:06:00;;;;;;;32.85;29.1;;;;;;;17.17;100;95338.09;;;;
2022/08/20 05:07:01;;;;;;;32.85;29.1;;;;;;;17.17;100;95338.09;;;;
2022/08/20 05:08:01;;;;;;;32.85;29.1;;;;;;;17.17;100;95338.09;;;;
2022/08/20 05:09:03;;;;;;;32.85;29.1;;;;;;;17.17;100;95338.09;;;;
2022/08/20 05:10:04;;;;;;;32.85;29.1;;;;;;;17.17;100;95338.09;;;;
2022/08/20 05:11:08;;;;;;;32.85;29.1;;;;;;;17.17;100;95338.09;;;;
2022/08/20 05:12:09;;;;;;;32.85;29.1;;;;;;;17.17;100;95338.09;;;;
2022/08/20 05:13:10;;;;;;;32.85;29.1;;;;;;;17.17;100;95338.09;;;;
2022/08/20 05:14:12;;;;;;;32.85;29.1;;;;;;;17.17;100;95338.09;;;;
2022/08/20 05:15:13;;;;;;;34.25;29.4;;;;;;;17.21;100;95343.74;;;;
2022/08/20 05:16:16;;;;;;;34.25;29.4;;;;;;;17.21;100;95343.74;;;;
2022/08/20 05:17:16;;;;;;;34.25;29.4;;;;;;;17.21;100;95343.74;;;;
2022/08/20 05:18:17;;;;;;;34.25;29.4;;;;;;;17.21;100;95343.74;;;;
2022/08/20 05:19:21;;;;;;;34.25;29.4;;;;;;;17.21;100;95343.74;;;;
2022/08/20 05:20:22;;;;;;;34.25;29.4;;;;;;;17.21;100;95343.74;;;;
2022/08/20 05:21:22;;;;;;;34.25;29.4;;;;;;;17.21;100;95343.74;;;;
2022/08/20 05:22:23;;;;;;;34.25;29.4;;;;;;;17.21;100;95343.74;;;;
2022/08/20 05:23:23;;;;;;;34.25;29.4;;;;;;;17.21;100;95343.74;;;;
2022/08/20 05:24:24;;;;;;;34.25;29.4;;;;;;;17.21;100;95343.74;;;;
2022/08/20 05:25:28;;;;;;;34.25;29.4;;;;;;;17.21;100;95343.74;;;;
2022/08/20 05:26:29;;;;;;;32.84999;29;;;;;;;17.36;100;95344.29;;;;
2022/08/20 05:27:29;;;;;;;32.84999;29;;;;;;;17.36;100;95344.29;;;;
2022/08/20 05:28:31;;;;;;;32.84999;29;;;;;;;17.36;100;95344.29;;;;
2022/08/20 05:29:32;;;;;;;32.84999;29;;;;;;;17.36;100;95344.29;;;;
2022/08/20 05:30:33;;;;;;;32.84999;29;;;;;;;17.36;100;95344.29;;;;
2022/08/20 05:31:35;;;;;;;32.84999;29;;;;;;;17.36;100;95344.29;;;;
2022/08/20 05:32:35;;;;;;;32.84999;29;;;;;;;17.36;100;95344.29;;;;
2022/08/20 05:33:37;;;;;;;32.84999;29;;;;;;;17.36;100;95344.29;;;;
2022/08/20 05:34:38;;;;;;;32.84999;29;;;;;;;17.36;100;95344.29;;;;
2022/08/20 05:35:38;;;;;;;32.84999;29;;;;;;;17.36;100;95344.29;;;;
2022/08/20 05:36:40;;;;;;;35.80001;29.70001;;;;;;;17.47;100;95347.92;;;;
2022/08/20 05:37:44;;;;;;;35.80001;29.70001;;;;;;;17.47;100;95347.92;;;;
2022/08/20 05:38:45;;;;;;;35.80001;29.70001;;;;;;;17.47;100;95347.92;;;;
2022/08/20 05:39:45;;;;;;;35.80001;29.70001;;;;;;;17.47;100;95347.92;;;;
2022/08/20 05:40:46;;;;;;;35.80001;29.70001;;;;;;;17.47;100;95347.92;;;;
2022/08/20 05:41:50;;;;;;;35.80001;29.70001;;;;;;;17.47;100;95347.92;;;;
2022/08/20 05:42:52;;;;;;;35.80001;29.70001;;;;;;;17.47;100;95347.92;;;;
2022/08/20 05:43:53;;;;;;;35.80001;29.70001;;;;;;;17.47;100;95347.92;;;;
2022/08/20 05:44:54;;;;;;;35.80001;29.70001;;;;;;;17.47;100;95347.92;;;;
2022/08/20 05:45:55;;;;;;;35.80001;29.70001;;;;;;;17.47;100;95347.92;;;;
2022/08/20 05:46:56;;;;;;;37.65;29.25;;;;;;;17.62;100;95360.47;;;;
2022/08/20 05:47:57;;;;;;;37.65;29.25;;;;;;;17.62;100;95360.47;;;;
2022/08/20 05:48:57;;;;;;;37.65;29.25;;;;;;;17.62;100;95360.47;;;;
2022/08/20 05:49:59;;;;;;;37.65;29.25;;;;;;;17.62;100;95360.47;;;;
2022/08/20 05:50:59;;;;;;;37.65;29.25;;;;;;;17.62;100;95360.47;;;;
2022/08/20 05:52:00;;;;;;;37.65;29.25;;;;;;;17.62;100;95360.47;;;;
2022/08/20 05:53:01;;;;;;;37.65;29.25;;;;;;;17.62;100;95360.47;;;;
2022/08/20 05:54:02;;;;;;;37.65;29.25;;;;;;;17.62;100;95360.47;;;;